ilmateenistus.ee keskkonnaagentuur.ee
EETN Tallinn
FTEO31 EETN 221100
TAF EETN 221110Z 2212/2312 05005KT 9999 SCT015 BKN025 PROB40 TEMPO
    2221/2304 2000 BR BKN004 BECMG 2306/2308 15012KT=

METAR EETN 221320Z 02003KT 9999 OVC024 10/06 Q1021 NOSIG=
Tallinn
EEKA Kärdla
FCEO32 EETN 221200
TAF EEKA 221200Z 2213/2219 VRB02KT 9999 SCT020 PROB40 TEMPO 2217/2219
    2000 BR BKN004=

METAR EEKA 221320Z 01004KT CAVOK 10/05 Q1021=
Kärdla
EEKE Kuressaare
METAR EEKE 221320Z 22006KT 190V260 9999 FEW037 11/05 Q1021=
Kuressaare
EEPU Pärnu
METAR EEPU 221320Z NIL=
Pärnu
EETU Tartu
METAR EETU 221320Z 02007KT 340V070 9999 FEW033 11/03 Q1019=
Tartu
EEEI Ämari
METAR EEEI 221250Z 06006KT 030V090 9999 FEW025 SCT030 BKN034 11/06 Q1021 NOSIG=
Ämari